.
WxDataArchive / Data Records for 2008-09-20
2008-09-19 September 2008 2008-09-21

Data Records for Saturday, 20 September 2008

Time	Temp	Chill	HIndex	Humid	Dewpt	 Wind 	HiWind	WindDir	Rain 	Barom 
-----	----	-----	------	-----	-----	------	------	-------	-----	----- 
00:00	55.1	55.1	55.1	93	53.1	0	0	---	0.00	30.126 
00:05	55.0	55.0	55.0	93	53.0	0	0	---	0.00	30.123 
00:10	55.0	55.0	55.0	93	53.0	0	0	---	0.00	30.122 
00:15	54.8	54.8	54.8	93	52.8	0	0	---	0.00	30.122 
00:20	54.8	54.8	54.8	93	52.8	0	0	---	0.00	30.122 
00:25	54.7	54.7	54.7	93	52.7	0	0	---	0.00	30.121 
00:30	54.7	54.7	54.7	93	52.7	0	0	---	0.00	30.120 
00:35	54.5	54.5	54.5	93	52.5	0	0	---	0.00	30.120 
00:40	54.5	54.5	54.5	94	52.8	0	0	---	0.00	30.120 
00:45	54.4	54.4	54.4	94	52.7	0	0	---	0.00	30.120 
00:50	54.4	54.4	54.4	94	52.7	0	0	---	0.00	30.122 
00:55	54.4	54.4	54.4	94	52.7	0	0	---	0.00	30.120 
01:00	54.2	54.2	54.2	94	52.5	0	0	---	0.00	30.120 
01:05	54.1	54.1	54.1	94	52.4	0	0	---	0.00	30.117 
01:10	53.9	53.9	53.9	94	52.2	0	0	---	0.00	30.117 
01:15	53.9	53.9	53.9	94	52.2	0	0	---	0.00	30.117 
01:20	53.8	53.8	53.8	94	52.1	0	0	---	0.00	30.117 
01:25	53.6	53.6	53.6	94	51.9	0	0	---	0.00	30.117 
01:30	53.5	53.5	53.5	94	51.8	0	0	---	0.00	30.116 
01:35	53.3	53.3	53.3	94	51.6	0	0	---	0.00	30.117 
01:40	53.3	53.3	53.3	94	51.6	0	0	---	0.00	30.114 
01:45	53.2	53.2	53.2	94	51.5	0	0	---	0.00	30.111 
01:50	53.1	53.1	53.1	94	51.4	0	0	---	0.00	30.111 
01:55	53.1	53.1	53.1	94	51.4	0	0	---	0.00	30.111 
02:00	52.9	52.9	52.9	94	51.2	0	0	---	0.00	30.111 
02:05	52.8	52.8	52.8	94	51.1	0	0	---	0.00	30.112 
02:10	52.6	52.6	52.6	94	50.9	0	0	---	0.00	30.113 
02:15	52.6	52.6	52.6	94	50.9	0	0	---	0.00	30.111 
02:20	52.6	52.6	52.6	94	50.9	0	0	---	0.00	30.113 
02:25	52.6	52.6	52.6	95	51.2	0	0	---	0.00	30.111 
02:30	52.5	52.5	52.5	95	51.1	0	0	---	0.00	30.110 
02:35	52.5	52.5	52.5	95	51.1	0	0	---	0.00	30.110 
02:40	52.5	52.5	52.5	95	51.1	0	0	---	0.00	30.109 
02:45	52.3	52.3	52.3	95	50.9	0	0	---	0.00	30.111 
02:50	52.2	52.2	52.2	95	50.8	0	0	---	0.00	30.111 
02:55	52.2	52.2	52.2	95	50.8	0	0	---	0.00	30.109 
03:00	52.2	52.2	52.2	95	50.8	0	0	---	0.00	30.109 
03:05	52.0	52.0	52.0	95	50.6	0	0	---	0.00	30.110 
03:10	52.0	52.0	52.0	95	50.6	0	0	---	0.00	30.110 
03:15	52.0	52.0	52.0	95	50.6	0	0	---	0.00	30.111 
03:20	52.0	52.0	52.0	95	50.6	0	0	---	0.00	30.111 
03:25	51.9	51.9	51.9	95	50.5	0	0	---	0.00	30.114 
03:30	51.9	51.9	51.9	95	50.5	0	0	---	0.00	30.114 
03:35	51.9	51.9	51.9	95	50.5	0	0	---	0.00	30.114 
03:40	51.9	51.9	51.9	95	50.5	0	0	---	0.00	30.116 
03:45	51.7	51.7	51.7	95	50.3	0	0	---	0.00	30.116 
03:50	51.7	51.7	51.7	95	50.3	0	0	---	0.00	30.116 
03:55	51.9	51.9	51.9	95	50.5	0	0	---	0.00	30.115 
04:00	51.9	51.9	51.9	95	50.5	0	0	---	0.00	30.116 
04:05	51.9	51.9	51.9	95	50.5	0	0	---	0.00	30.118 
04:10	51.9	51.9	51.9	95	50.5	0	0	---	0.00	30.119 
04:15	51.9	51.9	51.9	95	50.5	0	0	---	0.00	30.118 
04:20	51.9	51.9	51.9	95	50.5	0	0	---	0.00	30.119 
04:25	51.9	51.9	51.9	95	50.5	0	0	---	0.00	30.120 
04:30	51.9	51.9	51.9	95	50.5	0	0	---	0.00	30.119 
04:35	51.9	51.9	51.9	95	50.5	0	0	---	0.00	30.120 
04:40	51.9	51.9	51.9	95	50.5	0	0	---	0.00	30.121 
04:45	51.9	51.9	51.9	95	50.5	0	0	---	0.00	30.121 
04:50	51.9	51.9	51.9	95	50.5	0	0	---	0.00	30.122 
04:55	52.0	52.0	52.0	96	50.9	0	0	---	0.00	30.123 
05:00	52.0	52.0	52.0	96	50.9	0	0	---	0.00	30.123 
05:05	52.0	52.0	52.0	96	50.9	0	0	---	0.00	30.124 
05:10	52.0	52.0	52.0	96	50.9	0	0	---	0.00	30.125 
05:15	52.0	52.0	52.0	96	50.9	0	0	---	0.00	30.125 
05:20	52.2	52.2	52.2	96	51.1	0	0	---	0.00	30.125 
05:25	52.2	52.2	52.2	96	51.1	0	0	---	0.00	30.125 
05:30	52.2	52.2	52.2	96	51.1	0	0	---	0.00	30.126 
05:35	52.2	52.2	52.2	96	51.1	0	0	---	0.00	30.126 
05:40	52.2	52.2	52.2	96	51.1	0	0	---	0.00	30.129 
05:45	52.2	52.2	52.2	96	51.1	0	0	---	0.00	30.133 
05:50	52.2	52.2	52.2	96	51.1	0	0	---	0.00	30.136 
05:55	52.2	52.2	52.2	96	51.1	0	0	---	0.00	30.137 
06:00	52.2	52.2	52.2	96	51.1	0	0	---	0.00	30.138 
06:05	52.3	52.3	52.3	96	51.2	0	0	---	0.00	30.143 
06:10	52.3	52.3	52.3	96	51.2	0	0	---	0.00	30.144 
06:15	52.3	52.3	52.3	96	51.2	0	0	---	0.00	30.145 
06:20	52.3	52.3	52.3	96	51.2	0	0	---	0.00	30.145 
06:25	52.3	52.3	52.3	96	51.2	0	0	---	0.00	30.146 
06:30	52.3	52.3	52.3	96	51.2	0	0	---	0.00	30.146 
06:35	52.3	52.3	52.3	96	51.2	0	0	---	0.00	30.146 
06:40	52.3	52.3	52.3	96	51.2	0	0	---	0.00	30.146 
06:45	52.5	52.5	52.5	96	51.4	0	0	---	0.00	30.146 
06:50	52.6	52.6	52.6	96	51.5	0	0	---	0.00	30.147 
06:55	52.6	52.6	52.6	96	51.5	0	0	---	0.00	30.147 
07:00	52.9	52.9	52.9	96	51.8	0	0	---	0.00	30.150 
07:05	53.1	53.1	53.1	96	52.0	0	0	---	0.00	30.153 
07:10	53.2	53.2	53.2	96	52.1	0	0	---	0.00	30.154 
07:15	53.3	53.3	53.3	96	52.2	0	0	---	0.00	30.154 
07:20	53.5	53.5	53.5	96	52.4	0	0	---	0.00	30.151 
07:25	53.6	53.6	53.6	96	52.5	0	0	---	0.00	30.150 
07:30	53.8	53.8	53.8	96	52.7	0	0	---	0.00	30.148 
07:35	54.1	54.1	54.1	96	53.0	0	0	---	0.00	30.148 
07:40	54.2	54.2	54.2	96	53.1	0	0	---	0.00	30.149 
07:45	54.5	54.5	54.5	96	53.4	0	0	---	0.00	30.148 
07:50	54.8	54.8	54.8	96	53.7	0	0	---	0.00	30.149 
07:55	55.0	55.0	55.0	96	53.9	0	0	---	0.00	30.150 
08:00	55.3	55.3	55.3	96	54.2	0	0	---	0.00	30.150 
08:05	55.6	55.6	55.6	96	54.5	0	0	---	0.00	30.153 
08:10	55.9	55.9	55.9	96	54.8	0	0	---	0.00	30.153 
08:15	56.2	56.2	56.2	96	55.1	0	0	---	0.00	30.154 
08:20	56.5	56.5	56.5	96	55.4	0	0	---	0.00	30.156 
08:25	56.9	56.9	56.9	96	55.8	0	0	---	0.00	30.159 
08:30	57.2	57.2	57.2	95	55.8	0	0	---	0.00	30.158 
08:35	57.6	57.6	57.6	95	56.2	0	0	---	0.00	30.156 
08:40	58.0	58.0	58.0	94	56.3	0	0	---	0.00	30.158 
08:45	58.6	58.6	58.6	92	56.3	0	0	---	0.00	30.160 
08:50	59.2	59.2	59.2	91	56.6	0	0	---	0.00	30.160 
08:55	60.1	60.1	60.1	88	56.5	0	0	---	0.00	30.160 
09:00	61.0	61.0	61.0	86	56.8	0	0	---	0.00	30.159 
09:05	61.6	61.6	61.6	84	56.7	0	0	---	0.00	30.160 
09:10	62.3	62.3	62.3	82	56.7	0	0	---	0.00	30.161 
09:15	62.7	62.7	62.7	80	56.4	0	0	---	0.00	30.162 
09:20	63.4	63.4	63.4	80	57.1	0	0	---	0.00	30.161 
09:25	64.3	64.3	64.3	79	57.6	0	1	68	0.00	30.160 
09:30	65.2	65.2	65.2	75	57.1	0	1	68	0.00	30.161 
09:35	66.3	66.3	66.3	75	58.1	0	1	68	0.00	30.160 
09:40	67.1	67.1	67.1	70	57.0	0	1	68	0.00	30.158 
09:45	68.1	68.1	68.1	69	57.5	0	1	68	0.00	30.157 
09:50	69.1	69.1	69.1	69	58.5	0	1	68	0.00	30.158 
09:55	70.1	70.1	70.1	66	58.2	0	1	68	0.00	30.158 
10:00	70.9	70.9	70.9	67	59.4	0	1	68	0.00	30.158 
10:05	71.8	71.8	71.8	63	58.5	0	1	68	0.00	30.157 
10:10	72.7	72.7	72.7	62	58.9	0	1	68	0.00	30.158 
10:15	73.7	73.7	73.7	63	60.3	0	1	68	0.00	30.157 
10:20	74.2	74.2	74.2	61	59.9	0	1	68	0.00	30.159 
10:25	74.7	74.7	74.7	62	60.8	0	1	68	0.00	30.158 
10:30	75.3	75.3	77.5	60	60.4	0	1	68	0.00	30.158 
10:35	76.0	76.0	78.1	57	59.6	0	1	68	0.00	30.155 
10:40	76.5	76.5	78.4	57	60.1	0	1	68	0.00	30.158 
10:45	76.1	76.1	78.1	53	57.7	0	1	68	0.00	30.160 
10:50	75.6	75.6	77.8	57	59.3	0	1	68	0.00	30.160 
10:55	75.1	75.1	77.6	55	57.8	0	1	68	0.00	30.161 
11:00	74.9	74.9	74.9	58	59.1	0	1	68	0.00	30.161 
11:05	74.7	74.7	74.7	60	59.9	0	1	68	0.00	30.160 
11:10	74.9	74.9	74.9	59	59.6	0	1	68	0.00	30.156 
11:15	75.1	75.1	77.5	59	59.8	0	1	68	0.00	30.152 
11:20	75.3	75.3	77.6	59	60.0	0	0	---	0.00	30.152 
11:25	75.6	75.6	77.8	59	60.2	0	1	68	0.00	30.152 
11:30	76.0	76.0	78.0	59	60.6	0	1	68	0.00	30.151 
11:35	75.8	75.8	77.9	57	59.5	0	1	68	0.00	30.151 
11:40	75.8	75.8	77.9	56	59.0	0	1	68	0.00	30.151 
11:45	75.6	75.6	77.8	56	58.8	0	2	68	0.00	30.151 
11:50	75.4	75.4	77.7	57	59.1	0	1	68	0.00	30.150 
11:55	75.3	75.3	77.7	56	58.5	0	1	68	0.00	30.151 
12:00	75.3	75.3	77.6	57	59.0	0	1	68	0.00	30.150 
12:05	75.3	75.3	77.6	57	59.0	0	1	68	0.00	30.151 
12:10	76.0	76.0	78.0	58	60.1	0	1	68	0.00	30.148 
12:15	76.7	76.7	78.5	58	60.8	0	2	68	0.00	30.145 
12:20	77.0	77.0	78.7	55	59.6	0	1	68	0.00	30.145 
12:25	77.4	77.4	78.9	52	58.4	0	1	68	0.00	30.142 
12:30	78.1	78.1	79.5	53	59.6	0	3	68	0.00	30.140 
12:35	78.1	78.1	79.3	50	57.9	0	1	68	0.00	30.139 
12:40	78.5	78.5	79.8	53	59.9	0	2	68	0.00	30.136 
12:45	78.6	78.6	79.8	53	60.0	0	2	68	0.00	30.136 
12:50	78.6	78.6	79.5	48	57.2	0	3	68	0.00	30.136 
12:55	78.1	78.1	79.2	48	56.8	1	2	68	0.00	30.136 
13:00	77.7	77.7	79.0	50	57.6	1	2	68	0.00	30.135 
13:05	77.2	77.2	78.7	49	56.5	0	2	68	0.00	30.136 
13:10	77.2	77.2	78.8	52	58.2	0	2	68	0.00	30.135 
13:15	77.6	77.6	78.9	49	56.9	1	3	68	0.00	30.135 
13:20	78.1	78.1	79.4	51	58.5	1	3	68	0.00	30.134 
13:25	78.6	78.6	79.4	46	56.1	1	2	68	0.00	30.131 
13:30	78.6	78.6	79.5	47	56.7	1	3	68	0.00	30.129 
13:35	78.6	78.6	79.7	50	58.4	0	2	68	0.00	30.126 
13:40	78.8	78.8	79.6	47	56.8	1	5	90	0.00	30.123 
13:45	78.6	78.6	79.5	48	57.2	1	4	90	0.00	30.121 
13:50	78.5	78.5	79.4	47	56.6	0	2	90	0.00	30.119 
13:55	78.3	78.3	79.3	48	57.0	1	4	90	0.00	30.120 
14:00	77.9	77.9	79.0	47	56.0	1	3	90	0.00	30.120 
14:05	77.7	77.7	79.0	50	57.6	0	2	90	0.00	30.119 
14:10	77.7	77.7	79.1	51	58.1	0	1	90	0.00	30.119 
14:15	77.6	77.6	78.9	49	56.9	0	2	90	0.00	30.118 
14:20	77.7	77.7	79.0	49	57.0	0	1	90	0.00	30.119 
14:25	77.9	77.9	79.2	50	57.7	0	2	90	0.00	30.118 
14:30	77.7	77.7	79.0	50	57.6	0	4	90	0.00	30.118 
14:35	77.4	77.4	78.9	53	58.9	0	2	90	0.00	30.117 
14:40	77.2	77.2	78.8	54	59.2	0	2	90	0.00	30.117 
14:45	77.4	77.4	79.0	55	59.9	0	1	90	0.00	30.115 
14:50	77.7	77.7	79.1	52	58.6	0	2	90	0.00	30.114 
14:55	78.3	78.3	79.4	50	58.1	0	3	90	0.00	30.111 
15:00	78.6	78.6	79.5	47	56.7	1	4	90	0.00	30.108 
15:05	79.0	79.0	79.7	46	56.4	1	3	112	0.00	30.105 
15:10	79.4	79.4	80.1	47	57.4	0	3	270	0.00	30.105 
15:15	79.8	79.8	80.1	44	55.9	1	3	248	0.00	30.103 
15:20	79.9	79.9	80.3	45	56.6	0	2	248	0.00	30.102 
15:25	79.8	79.8	80.2	45	56.5	1	3	248	0.00	30.102 
15:30	79.6	79.6	80.1	46	57.0	0	1	248	0.00	30.102 
15:35	79.6	79.6	79.9	43	55.1	0	1	248	0.00	30.102 
15:40	79.4	79.4	79.9	45	56.2	0	1	248	0.00	30.103 
15:45	79.2	79.2	79.8	46	56.6	0	1	248	0.00	30.104 
15:50	79.4	79.4	80.0	46	56.8	0	1	248	0.00	30.102 
15:55	79.4	79.4	80.1	47	57.4	0	1	248	0.00	30.102 
16:00	79.6	79.6	80.0	45	56.4	0	1	248	0.00	30.101 
16:05	79.6	79.6	80.0	45	56.4	0	1	248	0.00	30.101 
16:10	79.4	79.4	79.8	44	55.6	0	1	248	0.00	30.101 
16:15	79.2	79.2	79.7	44	55.4	0	1	248	0.00	30.103 
16:20	79.0	79.0	79.7	46	56.4	0	1	248	0.00	30.103 
16:25	78.6	78.6	79.4	45	55.5	0	1	248	0.00	30.102 
16:30	78.5	78.5	79.4	46	56.0	0	0	---	0.00	30.102 
16:35	78.1	78.1	79.1	46	55.6	0	0	---	0.00	30.101 
16:40	77.7	77.7	78.9	47	55.8	0	0	---	0.00	30.100 
16:45	77.4	77.4	78.9	52	58.4	0	0	---	0.00	30.101 
16:50	77.2	77.2	78.8	52	58.2	0	0	---	0.00	30.101 
16:55	77.2	77.2	78.8	52	58.2	0	0	---	0.00	30.099 
17:00	77.4	77.4	78.8	50	57.3	0	0	---	0.00	30.099 
17:05	77.4	77.4	78.8	49	56.7	0	1	248	0.00	30.099 
17:10	77.6	77.6	79.0	51	58.0	0	0	---	0.00	30.098 
17:15	77.6	77.6	78.8	47	55.8	0	1	248	0.00	30.098 
17:20	77.6	77.6	79.0	50	57.5	0	0	---	0.00	30.099 
17:25	77.2	77.2	78.7	51	57.6	0	0	---	0.00	30.102 
17:30	76.8	76.8	78.5	52	57.8	0	0	---	0.00	30.103 
17:35	76.3	76.3	78.2	53	57.9	0	0	---	0.00	30.102 
17:40	75.8	75.8	78.0	54	57.9	0	0	---	0.00	30.103 
17:45	75.3	75.3	77.7	56	58.5	0	0	---	0.00	30.104 
17:50	74.9	74.9	74.9	57	58.6	0	0	---	0.00	30.105 
17:55	74.6	74.6	74.6	60	59.8	0	0	---	0.00	30.103 
18:00	74.2	74.2	74.2	60	59.4	0	0	---	0.00	30.105 
18:05	73.9	73.9	73.9	61	59.6	0	0	---	0.00	30.106 
18:10	73.3	73.3	73.3	62	59.5	0	0	---	0.00	30.105 
18:15	72.8	72.8	72.8	62	59.0	0	0	---	0.00	30.106 
18:20	72.5	72.5	72.5	63	59.2	0	0	---	0.00	30.106 
18:25	71.8	71.8	71.8	64	59.0	0	0	---	0.00	30.107 
18:30	71.3	71.3	71.3	65	58.9	0	0	---	0.00	30.107 
18:35	70.8	70.8	70.8	66	58.9	0	0	---	0.00	30.107 
18:40	70.1	70.1	70.1	69	59.4	0	0	---	0.00	30.109 
18:45	69.6	69.6	69.6	70	59.4	0	0	---	0.00	30.109 
18:50	69.3	69.3	69.3	71	59.5	0	0	---	0.00	30.109 
18:55	68.8	68.8	68.8	73	59.8	0	0	---	0.00	30.110 
19:00	68.3	68.3	68.3	74	59.7	0	0	---	0.00	30.111 
19:05	67.8	67.8	67.8	76	59.9	0	0	---	0.00	30.109 
19:10	67.3	67.3	67.3	77	59.8	0	0	---	0.00	30.110 
19:15	66.9	66.9	66.9	78	59.8	0	0	---	0.00	30.110 
19:20	66.6	66.6	66.6	78	59.5	0	0	---	0.00	30.111 
19:25	66.1	66.1	66.1	78	59.0	0	0	---	0.00	30.113 
19:30	65.6	65.6	65.6	79	58.9	0	0	---	0.00	30.114 
19:35	65.3	65.3	65.3	81	59.3	0	0	---	0.00	30.115 
19:40	65.0	65.0	65.0	81	59.0	0	0	---	0.00	30.116 
19:45	64.7	64.7	64.7	82	59.1	0	0	---	0.00	30.119 
19:50	64.3	64.3	64.3	83	59.0	0	0	---	0.00	30.119 
19:55	64.0	64.0	64.0	84	59.1	0	0	---	0.00	30.122 
20:00	63.9	63.9	63.9	84	59.0	0	0	---	0.00	30.124 
20:05	63.5	63.5	63.5	85	58.9	0	0	---	0.00	30.121 
20:10	63.4	63.4	63.4	86	59.1	0	0	---	0.00	30.123 
20:15	63.2	63.2	63.2	86	58.9	0	0	---	0.00	30.125 
20:20	62.9	62.9	62.9	86	58.6	0	0	---	0.00	30.125 
20:25	62.7	62.7	62.7	86	58.4	0	0	---	0.00	30.125 
20:30	62.6	62.6	62.6	86	58.3	0	0	---	0.00	30.126 
20:35	62.4	62.4	62.4	87	58.5	0	0	---	0.00	30.130 
20:40	62.3	62.3	62.3	87	58.4	0	0	---	0.00	30.133 
20:45	62.3	62.3	62.3	87	58.4	0	0	---	0.00	30.135 
20:50	62.1	62.1	62.1	87	58.2	0	0	---	0.00	30.136 
20:55	62.0	62.0	62.0	87	58.1	0	0	---	0.00	30.137 
21:00	61.8	61.8	61.8	88	58.2	0	0	---	0.00	30.140 
21:05	61.6	61.6	61.6	88	58.0	0	0	---	0.00	30.132 
21:10	61.5	61.5	61.5	89	58.2	0	0	---	0.00	30.131 
21:15	61.3	61.3	61.3	89	58.0	0	0	---	0.00	30.132 
21:20	61.2	61.2	61.2	89	57.9	0	0	---	0.00	30.132 
21:25	61.0	61.0	61.0	89	57.7	0	0	---	0.00	30.133 
21:30	60.9	60.9	60.9	89	57.6	0	0	---	0.00	30.133 
21:35	60.7	60.7	60.7	90	57.7	0	0	---	0.00	30.132 
21:40	60.5	60.5	60.5	90	57.5	0	0	---	0.00	30.133 
21:45	60.4	60.4	60.4	91	57.8	0	0	---	0.00	30.135 
21:50	60.2	60.2	60.2	91	57.6	0	0	---	0.00	30.135 
21:55	60.1	60.1	60.1	91	57.5	0	0	---	0.00	30.135 
22:00	59.9	59.9	59.9	91	57.3	0	0	---	0.00	30.135 
22:05	59.8	59.8	59.8	92	57.5	0	0	---	0.00	30.132 
22:10	59.6	59.6	59.6	92	57.3	0	0	---	0.00	30.131 
22:15	59.5	59.5	59.5	92	57.2	0	0	---	0.00	30.132 
22:20	59.3	59.3	59.3	92	57.0	0	0	---	0.00	30.132 
22:25	59.3	59.3	59.3	92	57.0	0	0	---	0.00	30.132 
22:30	59.2	59.2	59.2	92	56.9	0	0	---	0.00	30.133 
22:35	59.0	59.0	59.0	92	56.7	0	0	---	0.00	30.133 
22:40	58.9	58.9	58.9	93	56.9	0	0	---	0.00	30.134 
22:45	58.7	58.7	58.7	93	56.7	0	0	---	0.00	30.135 
22:50	58.6	58.6	58.6	93	56.6	0	0	---	0.00	30.135 
22:55	58.6	58.6	58.6	93	56.6	0	0	---	0.00	30.137 
23:00	58.4	58.4	58.4	93	56.4	0	0	---	0.00	30.141 
23:05	58.3	58.3	58.3	93	56.3	0	0	---	0.00	30.141 
23:10	58.3	58.3	58.3	94	56.6	0	0	---	0.00	30.141 
23:15	58.1	58.1	58.1	94	56.4	0	0	---	0.00	30.143 
23:20	58.1	58.1	58.1	94	56.4	0	0	---	0.00	30.145 
23:25	58.1	58.1	58.1	94	56.4	0	0	---	0.00	30.149 
23:30	58.1	58.1	58.1	94	56.4	0	0	---	0.00	30.149 
23:35	58.0	58.0	58.0	94	56.3	0	0	---	0.00	30.150 
23:40	58.0	58.0	58.0	94	56.3	0	0	---	0.00	30.148 
23:45	57.8	57.8	57.8	94	56.1	0	0	---	0.00	30.148 
23:50	57.6	57.6	57.6	94	55.9	0	0	---	0.00	30.149 
23:55	57.6	57.6	57.6	95	56.2	0	0	---	0.00	30.150 

CoCoRaHS
IN-AL-39
A2 Web Hosting
Creative Commons License
GoDaddy
Look for:

loaded 2017-12-11 06:47:31 • last modified 2010-11-18 10:43:29
Privacy PolicyDisclaimer
• wx.awcolley.com is powered by PmWiki v.2002016 •
• all content (unless otherwise noted) © 2017 A W Colley